PHL weather

Philadelphia International Airport
Philadelphia, Pennsylvania, United States

Public forecast

Using degrees Fahrenheit for public forecast. Weather courtesy of forecast.io.

METAR (pilot weather report)

Retrieved 2018/10/17 01:54 UTC (41 minutes ago):

KPHL 170154Z 20005KT 10SM SCT160 OVC250 12/06 A3010 RMK AO2 SLP194 T01170056 $

TAF (pilot weather forecast)

Forecast is more than 12 hours old.

Retrieved 2018/10/16 00:27 UTC (1 day ago):

TAF KPHL 162320Z 1700/1806 26006KT P6SM BKN250 FM171400 28014G22KT P6SM SCT050